This is the latest recevied weather packets stored in our database for station/object SV2RCS-13. If no packets are shown the sender has not sent any weather packets the latest 10 day(s).
| Time | Temp. | Humidity | Pressure | Rain* | Wind** | Luminosity | Snow |
|---|---|---|---|---|---|---|---|
| 1777931221 | 12.22° C | 30% | 1018 hPa | - | - | - | - |
| 1777930620 | 12.22° C | 29% | 1017.9 hPa | - | - | - | - |
| 1777930020 | 12.78° C | 28% | 1017.8 hPa | - | - | - | - |
| 1777929421 | 12.78° C | 28% | 1017.6 hPa | - | - | - | - |
| 1777928820 | 12.22° C | 30% | 1017.8 hPa | - | - | - | - |
| 1777928220 | 12.22° C | 30% | 1017.9 hPa | - | - | - | - |
| 1777927621 | 12.22° C | 31% | 1017.8 hPa | - | - | - | - |
| 1777927023 | 12.22° C | 31% | 1017.8 hPa | - | - | - | - |
| 1777926422 | 12.22° C | 31% | 1017.6 hPa | - | - | - | - |
| 1777925821 | 12.22° C | 31% | 1017.7 hPa | - | - | - | - |
| 1777925221 | 12.78° C | 31% | 1017.8 hPa | - | - | - | - |
| 1777924621 | 12.22° C | 32% | 1017.7 hPa | - | - | - | - |
| 1777924020 | 12.22° C | 34% | 1017.8 hPa | - | - | - | - |
| 1777923421 | 12.78° C | 33% | 1017.7 hPa | - | - | - | - |
| 1777922821 | 12.22° C | 34% | 1017.7 hPa | - | - | - | - |
| 1777922220 | 12.78° C | 33% | 1017.6 hPa | - | - | - | - |
| 1777921621 | 12.78° C | 34% | 1017.6 hPa | - | - | - | - |
| 1777921020 | 12.78° C | 34% | 1017.5 hPa | - | - | - | - |
| 1777920420 | 12.78° C | 33% | 1017.4 hPa | - | - | - | - |
| 1777919820 | 13.33° C | 31% | 1017.2 hPa | - | - | - | - |
| 1777919221 | 13.33° C | 30% | 1017 hPa | - | - | - | - |
| 1777918623 | 13.33° C | 27% | 1016.7 hPa | - | - | - | - |
| 1777918020 | 13.33° C | 26% | 1016.5 hPa | - | - | - | - |
| 1777917421 | 13.89° C | 24% | 1016.3 hPa | - | - | - | - |
| 1777916820 | 14.44° C | 23% | 1016 hPa | - | - | - | - |
* Rain since midnight (hover to see other rain measurements)
** Current wind speed in m/s (hover to see current wind gust speed)